Terminal Aerodrome Forecast
Issued by NWS Shreveport, LA

Home | Current Version | Previous Version | Text Only | Print | Product List | Glossary On
Versions: 1 2 3 4 5 6 7 8 9 10 11 12 13 14
000
FTUS44 KSHV 261700
TAFMLU
TAF
KMLU 261720Z 2618/2718 23016G24KT P6SM SKC
     FM270000 31008KT P6SM SKC
     FM270900 34007KT P6SM SKC
     FM271400 02009KT P6SM SKC=

USA.gov is the U.S. government's official web portal to all federal, state and local government web resources and services.